createdAt,value
2023-02-08T10:49:11.545Z,8.57
2023-02-08T10:49:57.277Z,8.38
2023-02-08T10:50:37.283Z,8.88
2023-02-08T10:51:21.496Z,9.05
2023-02-08T10:51:53.890Z,8.00
2023-02-08T10:52:25.553Z,8.30
2023-02-08T10:52:57.273Z,8.60
2023-02-08T10:53:28.879Z,7.90
2023-02-08T10:54:00.727Z,8.32
2023-02-08T10:54:34.542Z,8.48
2023-02-08T10:55:14.430Z,9.40
2023-02-08T10:55:48.011Z,8.75
2023-02-08T10:56:37.171Z,9.40
2023-02-08T10:57:34.992Z,8.52
2023-02-08T10:58:07.272Z,9.07
2023-02-08T10:58:38.999Z,9.02
2023-02-08T10:59:33.394Z,9.40
2023-02-08T11:00:09.779Z,7.68
2023-02-08T11:00:42.964Z,8.77
2023-02-08T11:01:15.116Z,9.43
2023-02-08T11:01:48.592Z,9.82
2023-02-08T11:02:22.175Z,9.57
2023-02-08T11:02:55.811Z,9.05
2023-02-08T11:03:29.376Z,9.10
2023-02-08T11:04:08.077Z,8.65
2023-02-08T11:05:08.076Z,9.75
2023-02-08T11:05:40.772Z,9.13
2023-02-08T11:06:27.221Z,10.00
2023-02-08T11:07:17.455Z,9.00
2023-02-08T11:08:06.218Z,8.35
2023-02-08T11:08:55.004Z,8.70
2023-02-08T11:09:32.767Z,8.68
2023-02-08T11:10:22.484Z,10.10
2023-02-08T11:10:59.991Z,10.30
2023-02-08T11:11:42.904Z,10.30
2023-02-08T11:12:20.465Z,8.18
2023-02-08T11:12:56.549Z,8.52
2023-02-08T11:13:36.550Z,8.43
2023-02-08T11:14:15.312Z,8.68
2023-02-08T11:14:52.536Z,8.90
2023-02-08T11:15:37.886Z,8.85
2023-02-08T11:16:13.545Z,8.45
2023-02-08T11:16:56.625Z,8.90
2023-02-08T11:17:31.910Z,9.10
2023-02-08T11:18:04.859Z,8.70
2023-02-08T11:18:40.875Z,9.50
2023-02-08T11:19:23.051Z,10.00
2023-02-08T11:19:55.271Z,9.85
2023-02-08T11:20:32.307Z,10.43
2023-02-08T11:21:11.277Z,9.93
2023-02-08T11:21:45.819Z,10.82
2023-02-08T11:22:19.779Z,10.50
2023-02-08T11:22:51.472Z,10.25
2023-02-08T11:23:29.959Z,9.45
2023-02-08T11:24:15.842Z,10.63
2023-02-08T11:25:00.199Z,9.60
2023-02-08T11:25:38.320Z,9.60
2023-02-08T11:26:18.943Z,9.38
2023-02-08T11:26:50.744Z,9.67
2023-02-08T11:27:42.942Z,9.18
2023-02-08T11:28:26.104Z,9.45
2023-02-08T11:29:13.620Z,9.27
2023-02-08T11:29:45.437Z,9.18
2023-02-08T11:30:23.604Z,9.10
2023-02-08T11:31:08.540Z,9.45
2023-02-08T11:31:55.941Z,9.00
2023-02-08T11:32:27.700Z,9.38
2023-02-08T11:33:31.767Z,9.25
2023-02-08T11:34:10.932Z,8.70
2023-02-08T11:34:42.551Z,9.40
2023-02-08T11:35:25.843Z,10.18
2023-02-08T11:36:05.640Z,9.52
2023-02-08T11:36:44.717Z,9.05
2023-02-08T11:37:28.727Z,9.95
2023-02-08T11:38:00.658Z,9.18
2023-02-08T11:38:34.800Z,9.25
2023-02-08T11:39:21.816Z,8.77
2023-02-08T11:40:01.031Z,8.25
2023-02-08T11:40:35.316Z,9.40
2023-02-08T11:41:15.931Z,8.82
2023-02-08T11:41:50.178Z,9.30
2023-02-08T11:42:24.794Z,10.13
2023-02-08T11:42:56.747Z,9.05
2023-02-08T11:43:31.541Z,8.48
2023-02-08T11:44:06.816Z,9.25
2023-02-08T11:44:43.844Z,9.35
2023-02-08T11:45:37.318Z,9.40
2023-02-08T11:46:10.994Z,8.98
2023-02-08T11:46:48.435Z,9.20
2023-02-08T11:47:26.025Z,9.23
2023-02-08T11:47:58.597Z,9.45
2023-02-08T11:48:52.558Z,8.80
2023-02-08T11:49:27.404Z,8.60
2023-02-08T11:50:05.707Z,9.02
2023-02-08T11:50:39.349Z,8.60
2023-02-08T11:51:14.854Z,9.57
2023-02-08T11:51:46.887Z,9.18
2023-02-08T11:52:24.995Z,8.65
2023-02-08T11:53:02.003Z,8.38
2023-02-08T11:53:37.882Z,7.70
2023-02-08T11:54:38.956Z,8.38
2023-02-08T11:55:19.448Z,8.90
2023-02-08T11:56:40.398Z,9.23
2023-02-08T11:57:13.861Z,7.90
2023-02-08T11:57:58.512Z,9.40
2023-02-08T11:58:30.704Z,9.20
2023-02-08T11:59:29.283Z,8.95
2023-02-08T12:00:20.520Z,8.10
2023-02-08T12:01:01.168Z,8.90
2023-02-08T12:01:36.198Z,9.07
2023-02-08T12:02:40.965Z,8.90
2023-02-08T12:03:12.592Z,8.52
2023-02-08T12:03:46.133Z,9.38
2023-02-08T12:04:18.232Z,9.65
2023-02-08T12:04:49.883Z,10.02
2023-02-08T12:05:47.664Z,8.93
2023-02-08T12:06:22.038Z,8.93
2023-02-08T12:07:15.181Z,8.38
2023-02-08T12:07:57.314Z,9.32
2023-02-08T12:08:47.238Z,8.93
2023-02-08T12:09:38.308Z,7.68
2023-02-08T12:10:23.648Z,7.80
2023-02-08T12:11:07.346Z,8.05
2023-02-08T12:12:04.009Z,7.88
2023-02-08T12:12:41.457Z,8.43
2023-02-08T12:13:24.886Z,8.00
2023-02-08T12:14:33.579Z,8.40
2023-02-08T12:15:27.062Z,7.88
2023-02-08T12:16:34.470Z,8.52
2023-02-08T12:17:20.838Z,7.93
2023-02-08T12:18:14.727Z,8.35
2023-02-08T12:19:03.837Z,8.38
2023-02-08T12:19:58.487Z,8.15
2023-02-08T12:20:36.946Z,7.63
2023-02-08T12:21:27.339Z,7.95
2023-02-08T12:22:17.033Z,8.15
2023-02-08T12:23:09.778Z,7.90
2023-02-08T12:23:53.152Z,8.23
2023-02-08T12:24:42.022Z,7.97
2023-02-08T12:25:26.300Z,7.75
2023-02-08T12:26:28.997Z,8.60
2023-02-08T12:27:32.637Z,8.55
2023-02-08T12:28:15.038Z,8.43
2023-02-08T12:29:07.009Z,7.47
2023-02-08T12:30:03.311Z,7.40
2023-02-08T12:30:44.140Z,7.28
2023-02-08T12:31:59.864Z,6.90
2023-02-08T12:32:50.107Z,7.30
2023-02-08T12:33:21.695Z,6.68
2023-02-08T12:33:59.411Z,7.10
2023-02-08T12:34:46.939Z,6.78
2023-02-08T12:35:57.651Z,7.20
2023-02-08T12:37:21.582Z,8.15
2023-02-08T12:38:24.625Z,8.13
2023-02-08T12:39:32.675Z,8.88
2023-02-08T12:40:35.059Z,8.18
2023-02-08T12:41:40.035Z,7.57
2023-02-08T12:42:33.434Z,7.72
2023-02-08T12:43:35.697Z,7.63
2023-02-08T12:44:28.433Z,8.63
2023-02-08T12:45:35.114Z,7.72
2023-02-08T12:46:27.315Z,7.93
2023-02-08T12:47:18.575Z,7.68
2023-02-08T12:48:19.433Z,11.27
2023-02-08T12:48:54.075Z,8.38
2023-02-08T12:49:28.637Z,8.05
2023-02-08T12:50:31.568Z,8.52
2023-02-08T12:51:23.770Z,8.63
2023-02-08T12:52:03.715Z,8.50
2023-02-08T12:52:41.546Z,8.90
2023-02-08T12:53:19.928Z,8.35
2023-02-08T12:54:00.616Z,8.63
2023-02-08T12:54:45.207Z,9.13
2023-02-08T12:55:34.852Z,8.65
2023-02-08T12:56:12.966Z,8.23
2023-02-08T12:57:00.305Z,7.93
2023-02-08T12:57:33.629Z,8.50
2023-02-08T12:58:26.904Z,7.93
2023-02-08T12:59:13.179Z,9.07
2023-02-08T12:59:59.290Z,8.77
2023-02-08T13:00:34.868Z,8.10
2023-02-08T13:01:18.831Z,8.93
2023-02-08T13:01:57.071Z,8.13
2023-02-08T13:02:44.434Z,8.20
2023-02-08T13:03:35.763Z,8.52
2023-02-08T13:04:19.585Z,8.18
2023-02-08T13:04:59.741Z,7.60
2023-02-08T13:05:38.105Z,8.30
2023-02-08T13:06:21.531Z,8.55
2023-02-08T13:06:58.673Z,8.38
2023-02-08T13:07:39.084Z,7.60
2023-02-08T13:08:24.535Z,8.32
2023-02-08T13:09:03.871Z,8.10
2023-02-08T13:09:52.225Z,7.68
2023-02-08T13:10:38.563Z,7.75
2023-02-08T13:11:20.182Z,6.95
2023-02-08T13:11:57.382Z,7.13
2023-02-08T13:12:40.885Z,7.18
2023-02-08T13:13:18.391Z,7.28
2023-02-08T13:13:58.770Z,7.53
2023-02-08T13:14:43.234Z,7.70
2023-02-08T13:15:37.827Z,7.50
2023-02-08T13:16:16.817Z,8.75
2023-02-08T13:16:53.626Z,8.73
2023-02-08T13:17:40.065Z,8.95
2023-02-08T13:18:25.235Z,8.77
2023-02-08T13:19:30.773Z,7.30
2023-02-08T13:20:20.828Z,6.90
2023-02-08T13:20:57.646Z,6.80
2023-02-08T13:21:38.018Z,6.90
2023-02-08T13:22:13.224Z,8.23
2023-02-08T13:22:46.348Z,7.43
2023-02-08T13:23:29.373Z,7.55
2023-02-08T13:24:01.526Z,6.68
2023-02-08T13:24:39.358Z,9.27
2023-02-08T13:25:21.384Z,9.27
2023-02-08T13:26:03.286Z,10.43
2023-02-08T13:26:37.932Z,8.00
2023-02-08T13:27:18.254Z,7.53
2023-02-08T13:27:51.557Z,6.75
2023-02-08T13:28:25.581Z,7.40
2023-02-08T13:29:01.229Z,7.38
2023-02-08T13:29:35.282Z,7.90
2023-02-08T13:30:18.582Z,7.88
2023-02-08T13:31:12.143Z,7.85
2023-02-08T13:31:49.756Z,7.55
2023-02-08T13:32:29.403Z,7.35
2023-02-08T13:33:13.538Z,8.10
2023-02-08T13:34:00.776Z,7.38
2023-02-08T13:34:44.867Z,7.93
2023-02-08T13:35:20.949Z,8.63
2023-02-08T13:35:53.889Z,9.05
2023-02-08T13:36:35.925Z,8.45
2023-02-08T13:37:25.506Z,8.48
2023-02-08T13:38:07.672Z,7.45
2023-02-08T13:38:42.693Z,9.10
2023-02-08T13:39:39.241Z,8.90
2023-02-08T13:40:10.948Z,7.85
2023-02-08T13:40:43.653Z,7.90
2023-02-08T13:41:20.890Z,8.85
2023-02-08T13:41:55.538Z,8.55
2023-02-08T13:42:47.823Z,7.60
2023-02-08T13:43:35.173Z,7.93
2023-02-08T13:44:18.152Z,7.78
2023-02-08T13:44:52.694Z,7.40
2023-02-08T13:45:34.938Z,7.88
2023-02-08T13:46:07.067Z,8.05
2023-02-08T13:46:47.910Z,8.00
2023-02-08T13:47:37.211Z,8.63
2023-02-08T13:48:11.906Z,8.45
2023-02-08T13:48:49.596Z,8.48
2023-02-08T13:49:42.757Z,8.98
2023-02-08T13:50:50.772Z,8.40
2023-02-08T13:51:31.421Z,8.02
2023-02-08T13:52:03.081Z,8.20
2023-02-08T13:52:46.906Z,8.43
2023-02-08T13:53:40.134Z,8.75
2023-02-08T13:54:13.559Z,6.55
2023-02-08T13:55:23.744Z,6.38
2023-02-08T13:56:00.384Z,6.43
2023-02-08T13:56:46.760Z,6.03
2023-02-08T13:57:57.425Z,4.93
2023-02-08T13:58:37.018Z,5.00
2023-02-08T13:59:34.253Z,5.80
2023-02-08T14:00:30.061Z,4.90
2023-02-08T14:01:06.647Z,5.70
2023-02-08T14:02:13.722Z,5.60
2023-02-08T14:03:02.108Z,6.20
2023-02-08T14:03:35.170Z,6.78
2023-02-08T14:04:12.808Z,5.70
2023-02-08T14:04:46.769Z,6.78
2023-02-08T14:05:51.627Z,6.78
2023-02-08T14:06:29.775Z,5.97
2023-02-08T14:07:14.421Z,6.13
2023-02-08T14:07:47.919Z,6.57
2023-02-08T14:08:40.805Z,6.38
2023-02-08T14:09:20.486Z,6.68
2023-02-08T14:10:17.075Z,6.72
2023-02-08T14:11:27.837Z,7.05
2023-02-08T14:12:13.235Z,7.60
2023-02-08T14:12:44.829Z,7.85
2023-02-08T14:13:27.859Z,7.80
2023-02-08T14:14:17.618Z,8.40
2023-02-08T14:15:07.347Z,7.55
2023-02-08T14:15:40.286Z,7.45
2023-02-08T14:16:31.843Z,7.40
2023-02-08T14:17:28.548Z,6.32
2023-02-08T14:18:02.756Z,6.63
2023-02-08T14:18:34.540Z,7.20
2023-02-08T14:19:18.269Z,6.95
2023-02-08T14:20:06.397Z,6.97
2023-02-08T14:20:40.213Z,7.78
2023-02-08T14:21:29.936Z,7.55
2023-02-08T14:22:13.190Z,7.03
2023-02-08T14:22:54.381Z,8.10
2023-02-08T14:23:30.425Z,7.75
2023-02-08T14:24:06.256Z,7.32
2023-02-08T14:24:43.637Z,7.60
2023-02-08T14:25:22.460Z,7.50
2023-02-08T14:25:57.047Z,7.40
2023-02-08T14:26:29.057Z,7.68
2023-02-08T14:27:16.774Z,8.45
2023-02-08T14:27:56.631Z,8.10
2023-02-08T14:28:35.851Z,7.43
2023-02-08T14:29:07.637Z,7.47
2023-02-08T14:29:39.338Z,7.50
2023-02-08T14:30:16.862Z,7.80
2023-02-08T14:30:53.195Z,7.63
2023-02-08T14:31:37.248Z,8.38
2023-02-08T14:32:09.057Z,9.05
2023-02-08T14:32:44.524Z,8.90
2023-02-08T14:33:22.604Z,8.60
2023-02-08T14:33:56.652Z,8.55
2023-02-08T14:34:37.811Z,8.05
2023-02-08T14:35:22.521Z,8.15
2023-02-08T14:35:59.675Z,8.75
2023-02-08T14:36:36.280Z,8.25
2023-02-08T14:37:10.639Z,7.85
2023-02-08T14:37:45.928Z,8.13
2023-02-08T14:38:20.322Z,7.93
2023-02-08T14:39:06.482Z,8.55
2023-02-08T14:39:38.331Z,8.35
2023-02-08T14:40:24.620Z,8.52
2023-02-08T14:41:04.421Z,8.35
2023-02-08T14:41:55.280Z,7.75
2023-02-08T14:43:00.456Z,8.32
2023-02-08T14:43:37.764Z,8.00
2023-02-08T14:44:48.185Z,8.63
2023-02-08T14:45:50.500Z,8.30
2023-02-08T14:46:37.852Z,7.70
2023-02-08T14:47:25.957Z,9.38
2023-02-08T14:48:05.299Z,8.70
2023-02-08T14:48:48.552Z,8.30
2023-02-08T14:49:20.682Z,8.40
2023-02-08T14:50:22.965Z,9.25
2023-02-08T14:51:06.842Z,8.93
2023-02-08T14:51:42.882Z,9.73
2023-02-08T14:52:21.048Z,10.45
2023-02-08T14:53:07.822Z,10.38
2023-02-08T14:53:42.429Z,9.07
2023-02-08T14:54:27.858Z,9.75
2023-02-08T14:55:06.521Z,9.82
2023-02-08T14:55:46.090Z,10.02
2023-02-08T14:56:29.582Z,9.50
2023-02-08T14:57:05.767Z,9.90
2023-02-08T14:57:40.559Z,10.68
2023-02-08T14:58:18.841Z,10.20
2023-02-08T14:59:04.913Z,9.70
2023-02-08T14:59:38.760Z,10.57
2023-02-08T15:00:40.277Z,12.02
2023-02-08T15:01:20.604Z,11.50
2023-02-08T15:01:59.871Z,10.98
2023-02-08T15:02:33.204Z,9.60
2023-02-08T15:03:07.105Z,9.40
2023-02-08T15:03:41.127Z,9.35
2023-02-08T15:04:14.900Z,10.13
2023-02-08T15:04:47.406Z,10.60
2023-02-08T15:05:25.069Z,10.00
2023-02-08T15:06:22.691Z,9.57
2023-02-08T15:07:17.631Z,9.20
2023-02-08T15:07:55.083Z,8.57
2023-02-08T15:08:27.522Z,8.70
2023-02-08T15:08:59.380Z,8.82
2023-02-08T15:09:35.802Z,9.85
2023-02-08T15:10:18.857Z,9.60
2023-02-08T15:10:50.475Z,10.25
2023-02-08T15:11:28.153Z,10.27
2023-02-08T15:12:03.151Z,9.07
2023-02-08T15:12:37.792Z,8.52
2023-02-08T15:13:20.069Z,9.35
2023-02-08T15:13:54.159Z,9.10
2023-02-08T15:14:26.275Z,9.15
2023-02-08T15:15:01.010Z,10.20
2023-02-08T15:15:45.911Z,9.52
2023-02-08T15:16:17.598Z,9.43
2023-02-08T15:16:49.620Z,9.07
2023-02-08T15:17:30.871Z,9.20
2023-02-08T15:18:04.594Z,8.98
2023-02-08T15:18:36.855Z,8.93
2023-02-08T15:19:09.894Z,9.80
2023-02-08T15:19:43.473Z,13.13
2023-02-08T15:20:27.089Z,12.68
2023-02-08T15:21:06.264Z,10.90
2023-02-08T15:21:38.971Z,9.65
2023-02-08T15:22:31.211Z,9.20
2023-02-08T15:23:28.034Z,9.55
2023-02-08T15:24:06.025Z,10.85
2023-02-08T15:24:38.025Z,8.70
2023-02-08T15:25:31.146Z,9.55
2023-02-08T15:26:19.840Z,10.00
2023-02-08T15:26:53.705Z,9.25
2023-02-08T15:27:28.997Z,9.75
2023-02-08T15:28:17.736Z,10.38
2023-02-08T15:28:49.367Z,9.43
2023-02-08T15:29:39.147Z,9.38
2023-02-08T15:30:27.449Z,8.80
2023-02-08T15:31:10.231Z,9.57
2023-02-08T15:31:41.898Z,9.32
2023-02-08T15:32:16.525Z,9.48
2023-02-08T15:32:48.137Z,9.45
2023-02-08T15:33:21.201Z,8.95
2023-02-08T15:33:54.399Z,9.95
2023-02-08T15:34:27.014Z,10.30
2023-02-08T15:35:04.102Z,10.05
2023-02-08T15:35:36.719Z,10.10
2023-02-08T15:36:29.566Z,10.57
2023-02-08T15:37:01.302Z,11.40
2023-02-08T15:37:34.831Z,10.02
2023-02-08T15:38:15.597Z,11.55
2023-02-08T15:38:48.246Z,11.60
2023-02-08T15:39:31.720Z,11.60
2023-02-08T15:40:04.795Z,10.95
2023-02-08T15:40:36.467Z,11.73
2023-02-08T15:41:23.548Z,12.13
2023-02-08T15:41:58.938Z,11.20
2023-02-08T15:42:33.808Z,11.95
2023-02-08T15:43:08.315Z,11.23
2023-02-08T15:43:42.219Z,10.77
2023-02-08T15:44:19.741Z,11.10
2023-02-08T15:44:51.989Z,11.27
2023-02-08T15:45:26.949Z,11.27
2023-02-08T15:46:04.587Z,10.75
2023-02-08T15:46:38.140Z,10.70
2023-02-08T15:47:22.373Z,10.32
2023-02-08T15:47:54.427Z,10.93
2023-02-08T15:48:27.644Z,11.05
2023-02-08T15:48:59.806Z,10.93
2023-02-08T15:49:38.087Z,10.38
2023-02-08T15:50:19.141Z,11.70
2023-02-08T15:50:52.241Z,11.98
2023-02-08T15:51:24.559Z,13.00
2023-02-08T15:51:57.074Z,13.32
2023-02-08T15:52:31.782Z,14.50
2023-02-08T15:53:07.788Z,15.25
2023-02-08T15:53:44.107Z,14.45
2023-02-08T15:54:18.283Z,15.00
2023-02-08T15:54:50.486Z,16.35
2023-02-08T15:55:22.437Z,15.93
2023-02-08T15:56:01.547Z,16.45
2023-02-08T15:56:39.552Z,16.92
2023-02-08T15:57:40.915Z,16.35
2023-02-08T15:58:28.870Z,17.05
2023-02-08T15:59:02.182Z,17.75
2023-02-08T15:59:37.759Z,17.90
2023-02-08T16:00:21.710Z,18.90
2023-02-08T16:00:53.387Z,19.35
2023-02-08T16:01:25.492Z,18.45
2023-02-08T16:02:01.838Z,16.40
2023-02-08T16:02:36.536Z,15.20
2023-02-08T16:03:20.292Z,15.35
2023-02-08T16:03:57.462Z,15.20
2023-02-08T16:04:29.231Z,15.73
2023-02-08T16:05:03.482Z,16.67
2023-02-08T16:05:36.257Z,16.63
2023-02-08T16:06:08.124Z,17.20
2023-02-08T16:06:48.083Z,18.92
2023-02-08T16:07:33.367Z,18.08
2023-02-08T16:08:05.855Z,18.25
2023-02-08T16:08:41.875Z,18.50
2023-02-08T16:09:18.954Z,19.30
2023-02-08T16:09:50.737Z,19.73
2023-02-08T16:10:23.828Z,18.50
2023-02-08T16:10:58.781Z,20.00
2023-02-08T16:11:33.291Z,20.58
2023-02-08T16:12:05.518Z,18.63
2023-02-08T16:12:37.218Z,20.48
2023-02-08T16:13:28.772Z,19.13
2023-02-08T16:14:02.204Z,21.85
2023-02-08T16:14:50.682Z,22.90
2023-02-08T16:15:45.019Z,23.15
2023-02-08T16:16:16.962Z,25.30
2023-02-08T16:16:58.618Z,27.52
2023-02-08T16:17:44.274Z,26.08
2023-02-08T16:18:50.312Z,25.73
2023-02-08T16:19:31.922Z,20.88
2023-02-08T16:20:22.600Z,18.98
2023-02-08T16:20:59.150Z,16.83
2023-02-08T16:21:41.855Z,16.63
2023-02-08T16:22:33.447Z,16.73
2023-02-08T16:23:25.128Z,15.93
2023-02-08T16:24:00.098Z,16.02
2023-02-08T16:24:31.689Z,16.63
2023-02-08T16:25:22.438Z,16.60
2023-02-08T16:25:54.367Z,15.50
2023-02-08T16:26:29.725Z,15.85
2023-02-08T16:27:20.677Z,16.38
2023-02-08T16:27:52.672Z,15.27
2023-02-08T16:28:29.916Z,14.23
2023-02-08T16:29:05.077Z,15.60
2023-02-08T16:29:39.784Z,14.88
2023-02-08T16:30:22.085Z,14.60
2023-02-08T16:30:56.524Z,16.23
2023-02-08T16:31:30.949Z,17.10
2023-02-08T16:32:13.356Z,16.75
2023-02-08T16:32:45.380Z,17.52
2023-02-08T16:33:17.147Z,17.33
2023-02-08T16:33:57.643Z,18.02
2023-02-08T16:34:34.557Z,19.38
2023-02-08T16:35:24.667Z,18.40
2023-02-08T16:36:02.211Z,18.95
2023-02-08T16:36:44.328Z,18.67
2023-02-08T16:37:28.016Z,19.70
2023-02-08T16:38:04.191Z,19.50
2023-02-08T16:38:36.277Z,19.25
2023-02-08T16:39:13.641Z,20.65
2023-02-08T16:39:58.436Z,19.10
2023-02-08T16:40:42.281Z,19.30
2023-02-08T16:41:14.230Z,17.80
2023-02-08T16:42:06.463Z,18.85
2023-02-08T16:42:45.840Z,17.35
2023-02-08T16:43:28.865Z,20.55
2023-02-08T16:44:17.643Z,17.77
2023-02-08T16:45:01.983Z,17.98
2023-02-08T16:45:33.661Z,19.17
2023-02-08T16:46:11.243Z,20.38
2023-02-08T16:46:46.287Z,20.75
2023-02-08T16:47:26.840Z,23.35
2023-02-08T16:48:04.197Z,22.63
2023-02-08T16:48:42.622Z,21.92
2023-02-08T16:49:14.195Z,23.38
2023-02-08T16:49:49.494Z,25.30
2023-02-08T16:50:23.804Z,23.55
2023-02-08T16:50:55.469Z,25.58
2023-02-08T16:51:30.725Z,23.40
2023-02-08T16:52:02.434Z,23.90
2023-02-08T16:52:34.255Z,25.55
2023-02-08T16:53:05.985Z,25.52
2023-02-08T16:53:42.338Z,26.48
2023-02-08T16:54:21.978Z,27.73
2023-02-08T16:54:53.678Z,28.15
2023-02-08T16:55:30.033Z,28.75
2023-02-08T16:56:01.881Z,28.33
2023-02-08T16:56:37.417Z,27.85
2023-02-08T16:57:09.480Z,25.90
2023-02-08T16:57:43.903Z,27.75
2023-02-08T16:58:16.000Z,26.73
2023-02-08T16:58:47.910Z,26.70
2023-02-08T16:59:19.875Z,26.08
2023-02-08T16:59:52.194Z,27.30
2023-02-08T17:00:34.041Z,26.70
2023-02-08T17:01:06.382Z,25.98
2023-02-08T17:01:38.414Z,24.13
2023-02-08T17:02:12.615Z,24.85
2023-02-08T17:02:44.358Z,24.02
2023-02-08T17:03:16.001Z,22.90
2023-02-08T17:03:50.126Z,22.90
2023-02-08T17:04:22.321Z,21.92
2023-02-08T17:04:54.664Z,21.27
2023-02-08T17:05:31.455Z,21.20
2023-02-08T17:06:03.191Z,20.80
2023-02-08T17:06:37.406Z,18.30
2023-02-08T17:07:18.172Z,17.55
2023-02-08T17:07:50.541Z,16.67
2023-02-08T17:08:22.580Z,17.13
2023-02-08T17:08:54.193Z,15.88
2023-02-08T17:09:25.808Z,16.25
2023-02-08T17:09:57.490Z,15.23
2023-02-08T17:10:32.319Z,15.95
2023-02-08T17:11:04.157Z,15.85
2023-02-08T17:11:36.686Z,15.95
2023-02-08T17:12:21.964Z,15.98
2023-02-08T17:13:03.820Z,15.57
2023-02-08T17:13:44.677Z,14.82
2023-02-08T17:14:16.338Z,16.23
2023-02-08T17:14:47.950Z,15.45
2023-02-08T17:15:21.105Z,15.50
2023-02-08T17:15:53.859Z,16.08
2023-02-08T17:16:29.027Z,16.17
2023-02-08T17:17:00.692Z,16.33
2023-02-08T17:17:32.268Z,16.08
2023-02-08T17:18:04.292Z,17.25
2023-02-08T17:18:36.235Z,17.67
2023-02-08T17:19:16.425Z,16.67
2023-02-08T17:19:48.106Z,17.40
2023-02-08T17:20:31.264Z,17.83
2023-02-08T17:21:02.935Z,17.75
2023-02-08T17:21:34.520Z,18.08
2023-02-08T17:22:06.122Z,19.15
2023-02-08T17:22:37.806Z,18.70
2023-02-08T17:23:10.454Z,18.98
2023-02-08T17:23:43.088Z,19.30
2023-02-08T17:24:14.885Z,19.00
2023-02-08T17:24:46.473Z,18.48
2023-02-08T17:25:21.673Z,18.80
2023-02-08T17:25:53.406Z,19.50
2023-02-08T17:26:28.000Z,19.30
2023-02-08T17:26:59.585Z,19.35
2023-02-08T17:27:31.211Z,19.08
2023-02-08T17:28:06.066Z,18.58
2023-02-08T17:28:38.942Z,18.88
2023-02-08T17:29:12.748Z,18.42
2023-02-08T17:29:44.374Z,18.23
2023-02-08T17:30:24.616Z,18.85
2023-02-08T17:30:56.405Z,17.38
2023-02-08T17:31:31.650Z,18.23
2023-02-08T17:32:03.337Z,17.92
2023-02-08T17:32:34.950Z,17.88
2023-02-08T17:33:07.685Z,18.33
2023-02-08T17:33:41.034Z,17.08
2023-02-08T17:34:12.615Z,16.15
2023-02-08T17:34:44.250Z,16.98
2023-02-08T17:35:17.508Z,16.45
2023-02-08T17:35:51.129Z,16.23
2023-02-08T17:36:23.058Z,16.40
2023-02-08T17:36:54.647Z,15.35
2023-02-08T17:37:26.351Z,16.27
2023-02-08T17:37:58.390Z,15.68
2023-02-08T17:38:30.027Z,15.10
2023-02-08T17:39:02.716Z,15.15
2023-02-08T17:39:34.617Z,15.60
2023-02-08T17:40:06.581Z,14.70
2023-02-08T17:40:38.462Z,15.45
2023-02-08T17:41:14.519Z,14.80
2023-02-08T17:41:46.093Z,15.23
2023-02-08T17:42:17.950Z,14.52
2023-02-08T17:42:51.836Z,14.40
2023-02-08T17:43:23.430Z,14.05
2023-02-08T17:43:56.652Z,14.52
2023-02-08T17:44:28.527Z,14.30
2023-02-08T17:45:00.304Z,14.13
2023-02-08T17:45:32.605Z,14.38
2023-02-08T17:46:20.361Z,13.70
2023-02-08T17:46:51.997Z,13.57
2023-02-08T17:47:23.618Z,14.75
2023-02-08T17:47:56.674Z,13.57
2023-02-08T17:48:28.391Z,13.55
2023-02-08T17:49:01.750Z,14.15
2023-02-08T17:49:33.561Z,14.18
2023-02-08T17:50:06.130Z,13.68
2023-02-08T17:50:40.218Z,14.70
2023-02-08T17:51:16.215Z,14.00
2023-02-08T17:51:47.994Z,15.07
2023-02-08T17:52:20.770Z,14.68
2023-02-08T17:52:52.513Z,13.98
2023-02-08T17:53:24.153Z,14.60
2023-02-08T17:53:56.791Z,13.90
2023-02-08T17:54:28.364Z,14.02
2023-02-08T17:55:00.371Z,14.20
2023-02-08T17:55:31.981Z,14.80
2023-02-08T17:56:04.848Z,13.73
2023-02-08T17:56:36.601Z,14.32
2023-02-08T17:57:08.951Z,14.05
2023-02-08T17:57:43.200Z,14.18
2023-02-08T17:58:15.088Z,14.05
2023-02-08T17:58:50.260Z,13.52
2023-02-08T17:59:24.743Z,14.55
2023-02-08T17:59:56.379Z,14.90
2023-02-08T18:00:27.983Z,14.90
2023-02-08T18:00:59.659Z,16.08
2023-02-08T18:01:31.813Z,15.50
2023-02-08T18:02:03.461Z,14.63
2023-02-08T18:02:35.849Z,16.25
2023-02-08T18:03:07.838Z,14.65
2023-02-08T18:03:39.498Z,15.90
2023-02-08T18:04:13.449Z,14.73
2023-02-08T18:04:45.156Z,14.95
2023-02-08T18:05:19.323Z,14.38
2023-02-08T18:05:59.020Z,15.05
2023-02-08T18:06:31.274Z,14.63
2023-02-08T18:07:03.149Z,14.05
2023-02-08T18:07:34.752Z,14.57
2023-02-08T18:08:06.438Z,14.30
2023-02-08T18:08:38.778Z,15.18
2023-02-08T18:09:10.351Z,13.82
2023-02-08T18:09:42.169Z,14.65
2023-02-08T18:10:15.289Z,14.77
2023-02-08T18:10:47.150Z,14.00
2023-02-08T18:11:20.981Z,13.63
2023-02-08T18:11:52.819Z,14.68
2023-02-08T18:12:24.795Z,12.98
2023-02-08T18:12:56.491Z,13.65
2023-02-08T18:13:28.092Z,13.18
2023-02-08T18:13:59.785Z,13.23
2023-02-08T18:14:31.482Z,13.05
2023-02-08T18:15:05.887Z,12.93
2023-02-08T18:15:37.575Z,12.85
2023-02-08T18:16:12.507Z,13.18
2023-02-08T18:16:44.222Z,13.57
2023-02-08T18:17:15.885Z,13.00
2023-02-08T18:17:48.001Z,13.13
2023-02-08T18:18:19.634Z,13.50
2023-02-08T18:18:52.513Z,13.52
2023-02-08T18:19:24.208Z,13.57
2023-02-08T18:19:55.815Z,14.27
2023-02-08T18:20:27.469Z,13.20
2023-02-08T18:20:59.064Z,12.60
2023-02-08T18:21:33.708Z,12.88
2023-02-08T18:22:06.138Z,13.43
2023-02-08T18:22:38.252Z,13.27
2023-02-08T18:23:09.956Z,13.18
2023-02-08T18:23:42.649Z,13.18
2023-02-08T18:24:14.222Z,12.93
2023-02-08T18:24:45.834Z,12.52
2023-02-08T18:25:17.838Z,12.93
2023-02-08T18:25:49.508Z,13.25
2023-02-08T18:26:23.851Z,12.18
2023-02-08T18:26:55.524Z,13.75
2023-02-08T18:27:27.837Z,13.18
2023-02-08T18:27:59.572Z,13.65
2023-02-08T18:28:31.319Z,12.48
2023-02-08T18:29:04.106Z,12.50
2023-02-08T18:29:35.815Z,12.50
2023-02-08T18:30:09.820Z,12.40
2023-02-08T18:30:42.635Z,12.63
2023-02-08T18:31:20.109Z,13.07
2023-02-08T18:31:52.513Z,13.98
2023-02-08T18:32:24.267Z,12.38
2023-02-08T18:32:56.214Z,11.77
2023-02-08T18:33:27.910Z,12.43
2023-02-08T18:33:59.534Z,12.68
2023-02-08T18:34:31.210Z,12.75
2023-02-08T18:35:04.348Z,11.80
2023-02-08T18:35:37.768Z,12.07
2023-02-08T18:36:11.538Z,12.15
2023-02-08T18:36:44.034Z,11.60
2023-02-08T18:37:16.228Z,12.55
2023-02-08T18:37:49.552Z,12.82
2023-02-08T18:38:21.226Z,12.13
2023-02-08T18:38:55.650Z,11.75
2023-02-08T18:39:27.334Z,12.48
2023-02-08T18:39:59.703Z,13.80
2023-02-08T18:40:32.296Z,12.73
2023-02-08T18:41:09.427Z,13.25
2023-02-08T18:41:45.186Z,13.18
2023-02-08T18:42:16.827Z,13.05
2023-02-08T18:42:48.402Z,13.15
2023-02-08T18:43:20.587Z,13.52
2023-02-08T18:43:55.032Z,12.00
2023-02-08T18:44:26.706Z,13.57
2023-02-08T18:44:58.392Z,13.75
2023-02-08T18:45:30.016Z,14.05
2023-02-08T18:46:06.458Z,14.82
2023-02-08T18:46:38.078Z,15.18
2023-02-08T18:47:09.783Z,16.58
2023-02-08T18:47:41.386Z,15.35
2023-02-08T18:48:13.136Z,14.90
2023-02-08T18:48:45.622Z,15.57
2023-02-08T18:49:17.602Z,15.30
2023-02-08T18:49:57.637Z,14.40
2023-02-08T18:50:29.256Z,14.60
2023-02-08T18:51:02.980Z,16.40
2023-02-08T18:51:34.672Z,15.25
2023-02-08T18:52:11.073Z,15.77
2023-02-08T18:52:42.716Z,14.10
2023-02-08T18:53:14.426Z,14.55
2023-02-08T18:53:48.590Z,14.13
2023-02-08T18:54:20.316Z,14.48
2023-02-08T18:54:51.980Z,14.15
2023-02-08T18:55:23.578Z,13.77
2023-02-08T18:55:59.644Z,13.40
2023-02-08T18:56:33.179Z,14.02
2023-02-08T18:57:06.272Z,13.50
2023-02-08T18:57:39.983Z,14.30
2023-02-08T18:58:12.035Z,13.50
2023-02-08T18:58:43.759Z,13.43
2023-02-08T18:59:15.459Z,13.52
2023-02-08T18:59:47.280Z,13.70
2023-02-08T19:00:19.096Z,14.05
2023-02-08T19:00:50.998Z,14.88
2023-02-08T19:01:24.367Z,13.80
2023-02-08T19:01:56.095Z,14.60
2023-02-08T19:02:27.913Z,14.90
2023-02-08T19:02:59.495Z,14.10
2023-02-08T19:03:31.193Z,13.90
2023-02-08T19:04:05.865Z,14.40
2023-02-08T19:04:38.737Z,15.02
2023-02-08T19:05:10.558Z,15.85
2023-02-08T19:05:42.627Z,15.07
2023-02-08T19:06:26.756Z,15.82
2023-02-08T19:06:58.409Z,15.23
2023-02-08T19:07:30.098Z,15.15
2023-02-08T19:08:01.676Z,15.05
2023-02-08T19:08:33.835Z,14.90
2023-02-08T19:09:07.564Z,13.98
2023-02-08T19:09:40.263Z,13.80
2023-02-08T19:10:11.901Z,12.70
2023-02-08T19:10:43.760Z,13.63
2023-02-08T19:11:21.452Z,13.90
2023-02-08T19:11:53.105Z,13.55
2023-02-08T19:12:24.688Z,12.80
2023-02-08T19:12:56.956Z,12.68
2023-02-08T19:13:28.736Z,13.90
2023-02-08T19:14:02.217Z,15.60
2023-02-08T19:14:34.448Z,15.15
2023-02-08T19:15:06.521Z,17.23